sensor_id;sensor_type;location;lat;lon;timestamp;P1;durP1;ratioP1;P2;durP2;ratioP2
11203;SDS011;5659;49.408;11.116;2022-08-18T00:00:14;11.57;;;4.63;;
11203;SDS011;5659;49.408;11.116;2022-08-18T00:02:40;7.20;;;4.43;;
11203;SDS011;5659;49.408;11.116;2022-08-18T00:05:08;7.10;;;4.00;;
11203;SDS011;5659;49.408;11.116;2022-08-18T00:07:34;8.60;;;4.05;;
11203;SDS011;5659;49.408;11.116;2022-08-18T00:10:01;10.95;;;3.92;;
11203;SDS011;5659;49.408;11.116;2022-08-18T00:12:37;8.82;;;4.30;;
11203;SDS011;5659;49.408;11.116;2022-08-18T00:15:05;8.02;;;3.78;;
11203;SDS011;5659;49.408;11.116;2022-08-18T00:17:32;8.63;;;3.90;;
11203;SDS011;5659;49.408;11.116;2022-08-18T00:19:58;6.22;;;3.90;;
11203;SDS011;5659;49.408;11.116;2022-08-18T00:22:24;9.30;;;3.85;;
11203;SDS011;5659;49.408;11.116;2022-08-18T00:24:52;7.95;;;3.40;;
11203;SDS011;5659;49.408;11.116;2022-08-18T00:27:19;7.43;;;3.75;;
11203;SDS011;5659;49.408;11.116;2022-08-18T00:29:46;10.98;;;3.63;;
11203;SDS011;5659;49.408;11.116;2022-08-18T00:32:45;6.45;;;3.58;;
11203;SDS011;5659;49.408;11.116;2022-08-18T00:35:08;5.95;;;3.33;;
11203;SDS011;5659;49.408;11.116;2022-08-18T00:37:37;10.75;;;3.60;;
11203;SDS011;5659;49.408;11.116;2022-08-18T00:40:03;8.35;;;3.40;;
11203;SDS011;5659;49.408;11.116;2022-08-18T00:42:30;10.43;;;3.42;;
11203;SDS011;5659;49.408;11.116;2022-08-18T00:44:56;11.10;;;3.10;;
11203;SDS011;5659;49.408;11.116;2022-08-18T00:47:23;14.52;;;4.13;;
11203;SDS011;5659;49.408;11.116;2022-08-18T00:49:52;11.73;;;3.95;;
11203;SDS011;5659;49.408;11.116;2022-08-18T00:52:18;6.00;;;3.65;;
11203;SDS011;5659;49.408;11.116;2022-08-18T00:54:44;10.05;;;4.00;;
11203;SDS011;5659;49.408;11.116;2022-08-18T00:57:12;25.65;;;4.35;;
11203;SDS011;5659;49.408;11.116;2022-08-18T00:59:51;10.48;;;4.70;;
11203;SDS011;5659;49.408;11.116;2022-08-18T01:02:23;8.32;;;5.00;;
11203;SDS011;5659;49.408;11.116;2022-08-18T01:04:52;9.52;;;5.07;;
11203;SDS011;5659;49.408;11.116;2022-08-18T01:07:23;10.45;;;5.32;;
11203;SDS011;5659;49.408;11.116;2022-08-18T01:09:53;8.43;;;5.18;;
11203;SDS011;5659;49.408;11.116;2022-08-18T01:12:19;9.00;;;4.65;;
11203;SDS011;5659;49.408;11.116;2022-08-18T01:14:45;10.27;;;5.50;;
11203;SDS011;5659;49.408;11.116;2022-08-18T01:17:12;7.95;;;5.38;;
11203;SDS011;5659;49.408;11.116;2022-08-18T01:19:57;5.85;;;5.03;;
11203;SDS011;5659;49.408;11.116;2022-08-18T01:25:12;11.57;;;5.10;;
11203;SDS011;5659;49.408;11.116;2022-08-18T01:27:56;10.80;;;5.53;;
11203;SDS011;5659;49.408;11.116;2022-08-18T01:30:26;11.40;;;5.32;;
11203;SDS011;5659;49.408;11.116;2022-08-18T01:32:52;9.73;;;5.30;;
11203;SDS011;5659;49.408;11.116;2022-08-18T01:35:18;8.88;;;5.85;;
11203;SDS011;5659;49.408;11.116;2022-08-18T01:37:47;7.93;;;6.68;;
11203;SDS011;5659;49.408;11.116;2022-08-18T01:40:14;8.88;;;6.28;;
11203;SDS011;5659;49.408;11.116;2022-08-18T01:42:41;8.38;;;6.22;;
11203;SDS011;5659;49.408;11.116;2022-08-18T01:45:10;11.35;;;7.75;;
11203;SDS011;5659;49.408;11.116;2022-08-18T01:47:36;11.30;;;7.65;;
11203;SDS011;5659;49.408;11.116;2022-08-18T01:50:04;10.48;;;7.85;;
11203;SDS011;5659;49.408;11.116;2022-08-18T01:52:30;13.48;;;8.55;;
11203;SDS011;5659;49.408;11.116;2022-08-18T01:54:58;14.45;;;9.30;;
11203;SDS011;5659;49.408;11.116;2022-08-18T01:57:24;12.00;;;8.85;;
11203;SDS011;5659;49.408;11.116;2022-08-18T01:59:50;15.48;;;9.57;;
11203;SDS011;5659;49.408;11.116;2022-08-18T02:02:19;11.80;;;9.88;;
11203;SDS011;5659;49.408;11.116;2022-08-18T02:04:49;11.70;;;10.05;;
11203;SDS011;5659;49.408;11.116;2022-08-18T02:07:16;13.57;;;10.65;;
11203;SDS011;5659;49.408;11.116;2022-08-18T02:09:42;12.43;;;10.23;;
11203;SDS011;5659;49.408;11.116;2022-08-18T02:12:08;22.45;;;12.00;;
11203;SDS011;5659;49.408;11.116;2022-08-18T02:14:35;17.25;;;11.35;;
11203;SDS011;5659;49.408;11.116;2022-08-18T02:17:01;17.67;;;10.88;;
11203;SDS011;5659;49.408;11.116;2022-08-18T02:19:46;16.02;;;11.82;;
11203;SDS011;5659;49.408;11.116;2022-08-18T02:22:13;14.38;;;12.38;;
11203;SDS011;5659;49.408;11.116;2022-08-18T02:24:40;17.60;;;12.25;;
11203;SDS011;5659;49.408;11.116;2022-08-18T02:27:06;16.48;;;12.07;;
11203;SDS011;5659;49.408;11.116;2022-08-18T02:29:33;21.10;;;12.48;;
11203;SDS011;5659;49.408;11.116;2022-08-18T02:31:59;14.32;;;12.27;;
11203;SDS011;5659;49.408;11.116;2022-08-18T02:34:25;13.38;;;11.98;;
11203;SDS011;5659;49.408;11.116;2022-08-18T02:36:51;13.43;;;11.60;;
11203;SDS011;5659;49.408;11.116;2022-08-18T02:39:18;13.73;;;12.32;;
11203;SDS011;5659;49.408;11.116;2022-08-18T02:41:44;18.23;;;13.15;;
11203;SDS011;5659;49.408;11.116;2022-08-18T02:44:10;15.52;;;13.23;;
11203;SDS011;5659;49.408;11.116;2022-08-18T02:46:36;14.88;;;13.30;;
11203;SDS011;5659;49.408;11.116;2022-08-18T02:49:03;16.98;;;13.50;;
11203;SDS011;5659;49.408;11.116;2022-08-18T02:51:29;22.73;;;14.35;;
11203;SDS011;5659;49.408;11.116;2022-08-18T02:53:55;21.75;;;14.73;;
11203;SDS011;5659;49.408;11.116;2022-08-18T02:56:26;21.27;;;14.70;;
11203;SDS011;5659;49.408;11.116;2022-08-18T02:59:03;17.15;;;14.65;;
11203;SDS011;5659;49.408;11.116;2022-08-18T03:01:31;19.60;;;16.25;;
11203;SDS011;5659;49.408;11.116;2022-08-18T03:03:58;19.80;;;16.50;;
11203;SDS011;5659;49.408;11.116;2022-08-18T03:06:25;22.05;;;16.73;;
11203;SDS011;5659;49.408;11.116;2022-08-18T03:08:51;20.00;;;16.42;;
11203;SDS011;5659;49.408;11.116;2022-08-18T03:11:21;25.33;;;16.88;;
11203;SDS011;5659;49.408;11.116;2022-08-18T03:13:47;19.13;;;16.15;;
11203;SDS011;5659;49.408;11.116;2022-08-18T03:16:13;21.90;;;17.70;;
11203;SDS011;5659;49.408;11.116;2022-08-18T03:18:43;22.00;;;18.08;;
11203;SDS011;5659;49.408;11.116;2022-08-18T03:21:11;21.98;;;17.30;;
11203;SDS011;5659;49.408;11.116;2022-08-18T03:23:37;23.60;;;17.58;;
11203;SDS011;5659;49.408;11.116;2022-08-18T03:26:11;21.77;;;17.70;;
11203;SDS011;5659;49.408;11.116;2022-08-18T03:28:38;26.95;;;19.88;;
11203;SDS011;5659;49.408;11.116;2022-08-18T03:31:05;24.02;;;19.65;;
11203;SDS011;5659;49.408;11.116;2022-08-18T03:33:31;25.02;;;19.33;;
11203;SDS011;5659;49.408;11.116;2022-08-18T03:36:31;24.77;;;19.45;;
11203;SDS011;5659;49.408;11.116;2022-08-18T03:38:50;22.48;;;18.77;;
11203;SDS011;5659;49.408;11.116;2022-08-18T03:41:17;26.98;;;19.05;;
11203;SDS011;5659;49.408;11.116;2022-08-18T03:43:43;22.88;;;18.90;;
11203;SDS011;5659;49.408;11.116;2022-08-18T03:46:11;22.80;;;17.70;;
11203;SDS011;5659;49.408;11.116;2022-08-18T03:48:38;20.58;;;17.30;;
11203;SDS011;5659;49.408;11.116;2022-08-18T03:51:26;19.55;;;17.48;;
11203;SDS011;5659;49.408;11.116;2022-08-18T03:53:51;24.92;;;19.10;;
11203;SDS011;5659;49.408;11.116;2022-08-18T03:56:19;25.83;;;19.30;;
11203;SDS011;5659;49.408;11.116;2022-08-18T03:58:46;25.90;;;19.48;;
11203;SDS011;5659;49.408;11.116;2022-08-18T04:01:14;22.73;;;18.92;;
11203;SDS011;5659;49.408;11.116;2022-08-18T04:03:47;22.88;;;20.42;;
11203;SDS011;5659;49.408;11.116;2022-08-18T04:06:15;25.45;;;19.23;;
11203;SDS011;5659;49.408;11.116;2022-08-18T04:08:41;23.30;;;18.58;;
11203;SDS011;5659;49.408;11.116;2022-08-18T04:11:08;25.00;;;19.70;;
11203;SDS011;5659;49.408;11.116;2022-08-18T04:13:34;24.10;;;19.58;;
11203;SDS011;5659;49.408;11.116;2022-08-18T04:16:03;27.23;;;20.17;;
11203;SDS011;5659;49.408;11.116;2022-08-18T04:18:29;25.90;;;20.40;;
11203;SDS011;5659;49.408;11.116;2022-08-18T04:20:56;24.52;;;20.35;;
11203;SDS011;5659;49.408;11.116;2022-08-18T04:23:23;21.80;;;19.30;;
11203;SDS011;5659;49.408;11.116;2022-08-18T04:25:56;28.65;;;19.08;;
11203;SDS011;5659;49.408;11.116;2022-08-18T04:28:22;27.70;;;19.00;;
11203;SDS011;5659;49.408;11.116;2022-08-18T04:30:48;22.70;;;19.02;;
11203;SDS011;5659;49.408;11.116;2022-08-18T04:33:14;20.75;;;18.55;;
11203;SDS011;5659;49.408;11.116;2022-08-18T04:35:40;21.08;;;18.88;;
11203;SDS011;5659;49.408;11.116;2022-08-18T04:38:07;22.33;;;18.05;;
11203;SDS011;5659;49.408;11.116;2022-08-18T04:40:33;21.60;;;17.42;;
11203;SDS011;5659;49.408;11.116;2022-08-18T04:42:59;21.10;;;18.63;;
11203;SDS011;5659;49.408;11.116;2022-08-18T04:45:26;24.67;;;18.60;;
11203;SDS011;5659;49.408;11.116;2022-08-18T04:47:52;21.38;;;19.02;;
11203;SDS011;5659;49.408;11.116;2022-08-18T04:50:18;27.85;;;20.73;;
11203;SDS011;5659;49.408;11.116;2022-08-18T04:52:45;22.70;;;19.73;;
11203;SDS011;5659;49.408;11.116;2022-08-18T04:55:29;20.83;;;18.25;;
11203;SDS011;5659;49.408;11.116;2022-08-18T04:57:55;24.67;;;17.95;;
11203;SDS011;5659;49.408;11.116;2022-08-18T05:00:24;19.73;;;17.65;;
11203;SDS011;5659;49.408;11.116;2022-08-18T05:02:50;27.00;;;18.88;;
11203;SDS011;5659;49.408;11.116;2022-08-18T05:05:18;23.13;;;18.80;;
11203;SDS011;5659;49.408;11.116;2022-08-18T05:07:44;20.60;;;18.50;;
11203;SDS011;5659;49.408;11.116;2022-08-18T05:10:11;24.65;;;19.48;;
11203;SDS011;5659;49.408;11.116;2022-08-18T05:12:37;25.45;;;18.83;;
11203;SDS011;5659;49.408;11.116;2022-08-18T05:15:07;22.50;;;18.45;;
11203;SDS011;5659;49.408;11.116;2022-08-18T05:17:35;23.05;;;18.75;;
11203;SDS011;5659;49.408;11.116;2022-08-18T05:20:03;21.48;;;18.60;;
11203;SDS011;5659;49.408;11.116;2022-08-18T05:22:29;20.58;;;18.52;;
11203;SDS011;5659;49.408;11.116;2022-08-18T05:25:00;20.55;;;17.80;;
11203;SDS011;5659;49.408;11.116;2022-08-18T05:27:31;19.35;;;17.45;;
11203;SDS011;5659;49.408;11.116;2022-08-18T05:29:57;22.05;;;18.10;;
11203;SDS011;5659;49.408;11.116;2022-08-18T05:32:23;22.48;;;17.73;;
11203;SDS011;5659;49.408;11.116;2022-08-18T05:34:49;21.17;;;18.13;;
11203;SDS011;5659;49.408;11.116;2022-08-18T05:37:24;22.50;;;18.08;;
11203;SDS011;5659;49.408;11.116;2022-08-18T05:39:58;21.42;;;18.40;;
11203;SDS011;5659;49.408;11.116;2022-08-18T05:42:26;20.55;;;18.40;;
11203;SDS011;5659;49.408;11.116;2022-08-18T05:44:53;21.75;;;19.45;;
11203;SDS011;5659;49.408;11.116;2022-08-18T05:47:29;23.77;;;17.48;;
11203;SDS011;5659;49.408;11.116;2022-08-18T05:49:56;21.30;;;18.33;;
11203;SDS011;5659;49.408;11.116;2022-08-18T05:54:53;24.13;;;19.33;;
11203;SDS011;5659;49.408;11.116;2022-08-18T05:57:42;23.77;;;19.48;;
11203;SDS011;5659;49.408;11.116;2022-08-18T06:00:09;25.25;;;20.08;;
11203;SDS011;5659;49.408;11.116;2022-08-18T06:02:37;26.90;;;19.48;;
11203;SDS011;5659;49.408;11.116;2022-08-18T06:05:07;26.00;;;19.95;;
11203;SDS011;5659;49.408;11.116;2022-08-18T06:07:42;25.33;;;18.92;;
11203;SDS011;5659;49.408;11.116;2022-08-18T06:10:10;30.70;;;19.92;;
11203;SDS011;5659;49.408;11.116;2022-08-18T06:12:59;19.85;;;17.63;;
11203;SDS011;5659;49.408;11.116;2022-08-18T06:15:41;24.58;;;17.02;;
11203;SDS011;5659;49.408;11.116;2022-08-18T06:18:15;17.58;;;15.30;;
11203;SDS011;5659;49.408;11.116;2022-08-18T06:23:41;18.48;;;16.35;;
11203;SDS011;5659;49.408;11.116;2022-08-18T06:26:16;20.35;;;16.35;;
11203;SDS011;5659;49.408;11.116;2022-08-18T06:31:24;25.05;;;15.70;;
11203;SDS011;5659;49.408;11.116;2022-08-18T06:34:02;20.73;;;14.65;;
11203;SDS011;5659;49.408;11.116;2022-08-18T06:37:09;18.10;;;14.30;;
11203;SDS011;5659;49.408;11.116;2022-08-18T06:39:31;18.23;;;13.45;;
11203;SDS011;5659;49.408;11.116;2022-08-18T06:41:59;16.95;;;13.77;;
11203;SDS011;5659;49.408;11.116;2022-08-18T06:44:35;17.40;;;14.57;;
11203;SDS011;5659;49.408;11.116;2022-08-18T06:47:18;14.35;;;12.18;;
11203;SDS011;5659;49.408;11.116;2022-08-18T06:54:47;15.00;;;10.50;;
11203;SDS011;5659;49.408;11.116;2022-08-18T06:57:33;11.95;;;9.77;;
11203;SDS011;5659;49.408;11.116;2022-08-18T07:00:19;16.52;;;10.45;;
11203;SDS011;5659;49.408;11.116;2022-08-18T07:02:56;12.15;;;9.07;;
11203;SDS011;5659;49.408;11.116;2022-08-18T07:05:27;13.10;;;9.48;;
11203;SDS011;5659;49.408;11.116;2022-08-18T07:10:41;10.73;;;9.45;;
11203;SDS011;5659;49.408;11.116;2022-08-18T07:15:33;10.98;;;9.32;;
11203;SDS011;5659;49.408;11.116;2022-08-18T07:18:03;11.32;;;9.65;;
11203;SDS011;5659;49.408;11.116;2022-08-18T07:20:31;12.73;;;9.82;;
11203;SDS011;5659;49.408;11.116;2022-08-18T07:23:05;11.07;;;9.02;;
11203;SDS011;5659;49.408;11.116;2022-08-18T07:25:38;13.02;;;9.85;;
11203;SDS011;5659;49.408;11.116;2022-08-18T07:28:06;15.52;;;9.40;;
11203;SDS011;5659;49.408;11.116;2022-08-18T07:30:36;11.43;;;9.00;;
11203;SDS011;5659;49.408;11.116;2022-08-18T07:33:19;12.73;;;9.68;;
11203;SDS011;5659;49.408;11.116;2022-08-18T07:35:47;10.48;;;8.63;;
11203;SDS011;5659;49.408;11.116;2022-08-18T07:38:21;12.13;;;9.73;;
11203;SDS011;5659;49.408;11.116;2022-08-18T07:40:58;9.48;;;7.90;;
11203;SDS011;5659;49.408;11.116;2022-08-18T07:43:28;8.90;;;8.00;;
11203;SDS011;5659;49.408;11.116;2022-08-18T07:46:01;10.23;;;8.38;;
11203;SDS011;5659;49.408;11.116;2022-08-18T07:48:30;12.48;;;8.40;;
11203;SDS011;5659;49.408;11.116;2022-08-18T07:51:20;11.07;;;8.70;;
11203;SDS011;5659;49.408;11.116;2022-08-18T07:53:46;12.13;;;8.57;;
11203;SDS011;5659;49.408;11.116;2022-08-18T07:56:22;9.35;;;8.30;;
11203;SDS011;5659;49.408;11.116;2022-08-18T07:58:57;11.88;;;7.82;;
11203;SDS011;5659;49.408;11.116;2022-08-18T08:01:28;12.35;;;7.90;;
11203;SDS011;5659;49.408;11.116;2022-08-18T08:04:01;8.45;;;7.47;;
11203;SDS011;5659;49.408;11.116;2022-08-18T08:06:35;12.57;;;8.15;;
11203;SDS011;5659;49.408;11.116;2022-08-18T08:11:38;10.70;;;8.10;;
11203;SDS011;5659;49.408;11.116;2022-08-18T08:16:47;12.13;;;8.32;;
11203;SDS011;5659;49.408;11.116;2022-08-18T08:19:21;12.63;;;7.93;;
11203;SDS011;5659;49.408;11.116;2022-08-18T08:22:02;13.68;;;8.15;;
11203;SDS011;5659;49.408;11.116;2022-08-18T08:24:48;10.98;;;9.27;;
11203;SDS011;5659;49.408;11.116;2022-08-18T08:27:23;10.25;;;9.13;;
11203;SDS011;5659;49.408;11.116;2022-08-18T08:29:58;12.38;;;8.90;;
11203;SDS011;5659;49.408;11.116;2022-08-18T08:32:30;9.30;;;7.35;;
11203;SDS011;5659;49.408;11.116;2022-08-18T08:34:59;8.88;;;7.97;;
11203;SDS011;5659;49.408;11.116;2022-08-18T08:40:06;11.95;;;8.13;;
11203;SDS011;5659;49.408;11.116;2022-08-18T08:45:54;9.38;;;8.02;;
11203;SDS011;5659;49.408;11.116;2022-08-18T08:48:21;9.48;;;7.88;;
11203;SDS011;5659;49.408;11.116;2022-08-18T08:50:59;12.02;;;8.95;;
11203;SDS011;5659;49.408;11.116;2022-08-18T08:53:27;9.52;;;7.53;;
11203;SDS011;5659;49.408;11.116;2022-08-18T08:55:55;9.93;;;8.32;;
11203;SDS011;5659;49.408;11.116;2022-08-18T08:58:30;15.05;;;8.70;;
11203;SDS011;5659;49.408;11.116;2022-08-18T09:00:58;9.75;;;8.18;;
11203;SDS011;5659;49.408;11.116;2022-08-18T09:03:27;9.85;;;8.20;;
11203;SDS011;5659;49.408;11.116;2022-08-18T09:24:47;8.38;;;6.93;;
11203;SDS011;5659;49.408;11.116;2022-08-18T09:29:50;7.75;;;6.57;;
11203;SDS011;5659;49.408;11.116;2022-08-18T09:37:26;11.25;;;6.45;;
11203;SDS011;5659;49.408;11.116;2022-08-18T09:42:45;9.65;;;6.10;;
11203;SDS011;5659;49.408;11.116;2022-08-18T09:59:05;7.53;;;5.90;;
11203;SDS011;5659;49.408;11.116;2022-08-18T10:01:33;7.97;;;5.88;;
11203;SDS011;5659;49.408;11.116;2022-08-18T10:04:46;8.38;;;5.82;;
11203;SDS011;5659;49.408;11.116;2022-08-18T10:06:48;14.77;;;6.20;;
11203;SDS011;5659;49.408;11.116;2022-08-18T10:14:24;7.43;;;6.20;;
11203;SDS011;5659;49.408;11.116;2022-08-18T10:16:57;7.05;;;6.15;;
11203;SDS011;5659;49.408;11.116;2022-08-18T10:19:38;8.50;;;5.35;;
11203;SDS011;5659;49.408;11.116;2022-08-18T10:22:08;6.07;;;5.03;;
11203;SDS011;5659;49.408;11.116;2022-08-18T10:24:36;8.93;;;5.60;;
11203;SDS011;5659;49.408;11.116;2022-08-18T10:27:06;6.00;;;5.38;;
11203;SDS011;5659;49.408;11.116;2022-08-18T10:29:41;8.32;;;5.63;;
11203;SDS011;5659;49.408;11.116;2022-08-18T10:34:47;14.10;;;6.10;;
11203;SDS011;5659;49.408;11.116;2022-08-18T10:42:10;7.57;;;5.65;;
11203;SDS011;5659;49.408;11.116;2022-08-18T10:44:45;8.63;;;5.95;;
11203;SDS011;5659;49.408;11.116;2022-08-18T10:47:19;7.90;;;5.38;;
11203;SDS011;5659;49.408;11.116;2022-08-18T10:49:47;8.20;;;5.35;;
11203;SDS011;5659;49.408;11.116;2022-08-18T10:52:27;9.23;;;5.93;;
11203;SDS011;5659;49.408;11.116;2022-08-18T10:59:58;19.95;;;5.47;;
11203;SDS011;5659;49.408;11.116;2022-08-18T11:04:58;9.55;;;5.15;;
11203;SDS011;5659;49.408;11.116;2022-08-18T11:07:29;9.85;;;5.55;;
11203;SDS011;5659;49.408;11.116;2022-08-18T11:09:56;6.82;;;5.18;;
11203;SDS011;5659;49.408;11.116;2022-08-18T11:15:14;6.72;;;5.13;;
11203;SDS011;5659;49.408;11.116;2022-08-18T11:17:51;6.63;;;5.57;;
11203;SDS011;5659;49.408;11.116;2022-08-18T11:20:19;11.43;;;5.80;;
11203;SDS011;5659;49.408;11.116;2022-08-18T11:22:50;10.80;;;5.45;;
11203;SDS011;5659;49.408;11.116;2022-08-18T11:25:19;10.95;;;4.95;;
11203;SDS011;5659;49.408;11.116;2022-08-18T11:27:47;9.40;;;5.65;;
11203;SDS011;5659;49.408;11.116;2022-08-18T11:30:13;8.38;;;5.32;;
11203;SDS011;5659;49.408;11.116;2022-08-18T11:32:39;6.50;;;5.00;;
11203;SDS011;5659;49.408;11.116;2022-08-18T11:35:10;5.68;;;5.18;;
11203;SDS011;5659;49.408;11.116;2022-08-18T11:40:26;7.97;;;5.13;;
11203;SDS011;5659;49.408;11.116;2022-08-18T11:45:57;12.88;;;5.20;;
11203;SDS011;5659;49.408;11.116;2022-08-18T11:53:21;7.30;;;5.05;;
11203;SDS011;5659;49.408;11.116;2022-08-18T11:56:00;10.25;;;5.10;;
11203;SDS011;5659;49.408;11.116;2022-08-18T11:58:37;6.28;;;5.05;;
11203;SDS011;5659;49.408;11.116;2022-08-18T12:01:03;7.50;;;5.35;;
11203;SDS011;5659;49.408;11.116;2022-08-18T12:03:43;9.88;;;5.45;;
11203;SDS011;5659;49.408;11.116;2022-08-18T12:06:11;8.38;;;5.53;;
11203;SDS011;5659;49.408;11.116;2022-08-18T12:08:56;9.00;;;5.00;;
11203;SDS011;5659;49.408;11.116;2022-08-18T12:11:24;7.40;;;5.93;;
11203;SDS011;5659;49.408;11.116;2022-08-18T12:14:01;12.20;;;5.43;;
11203;SDS011;5659;49.408;11.116;2022-08-18T12:16:33;8.10;;;5.70;;
11203;SDS011;5659;49.408;11.116;2022-08-18T12:18:59;8.52;;;5.60;;
11203;SDS011;5659;49.408;11.116;2022-08-18T12:21:26;12.80;;;5.75;;
11203;SDS011;5659;49.408;11.116;2022-08-18T12:23:52;8.07;;;5.93;;
11203;SDS011;5659;49.408;11.116;2022-08-18T12:26:18;7.90;;;5.75;;
11203;SDS011;5659;49.408;11.116;2022-08-18T12:28:44;9.88;;;6.03;;
11203;SDS011;5659;49.408;11.116;2022-08-18T12:31:10;11.68;;;5.80;;
11203;SDS011;5659;49.408;11.116;2022-08-18T12:33:36;9.77;;;6.18;;
11203;SDS011;5659;49.408;11.116;2022-08-18T12:36:03;9.73;;;5.75;;
11203;SDS011;5659;49.408;11.116;2022-08-18T12:38:32;8.85;;;5.55;;
11203;SDS011;5659;49.408;11.116;2022-08-18T12:40:59;11.68;;;5.78;;
11203;SDS011;5659;49.408;11.116;2022-08-18T12:43:25;7.32;;;5.53;;
11203;SDS011;5659;49.408;11.116;2022-08-18T12:45:51;11.05;;;5.75;;
11203;SDS011;5659;49.408;11.116;2022-08-18T12:48:17;6.68;;;5.50;;
11203;SDS011;5659;49.408;11.116;2022-08-18T12:50:43;6.68;;;5.55;;
11203;SDS011;5659;49.408;11.116;2022-08-18T12:53:10;6.43;;;5.65;;
11203;SDS011;5659;49.408;11.116;2022-08-18T12:55:39;10.85;;;5.68;;
11203;SDS011;5659;49.408;11.116;2022-08-18T12:58:05;7.93;;;5.50;;
11203;SDS011;5659;49.408;11.116;2022-08-18T13:00:32;7.07;;;5.13;;
11203;SDS011;5659;49.408;11.116;2022-08-18T13:02:58;8.88;;;5.25;;
11203;SDS011;5659;49.408;11.116;2022-08-18T13:05:25;6.95;;;4.53;;
11203;SDS011;5659;49.408;11.116;2022-08-18T13:07:51;10.18;;;5.15;;
11203;SDS011;5659;49.408;11.116;2022-08-18T13:10:17;9.70;;;4.97;;
11203;SDS011;5659;49.408;11.116;2022-08-18T13:12:43;5.50;;;4.82;;
11203;SDS011;5659;49.408;11.116;2022-08-18T13:15:09;10.52;;;5.03;;
11203;SDS011;5659;49.408;11.116;2022-08-18T13:17:36;8.20;;;5.30;;
11203;SDS011;5659;49.408;11.116;2022-08-18T13:20:04;8.00;;;5.10;;
11203;SDS011;5659;49.408;11.116;2022-08-18T13:22:31;6.78;;;4.95;;
11203;SDS011;5659;49.408;11.116;2022-08-18T13:24:57;7.40;;;4.80;;
11203;SDS011;5659;49.408;11.116;2022-08-18T13:27:23;7.22;;;4.22;;
11203;SDS011;5659;49.408;11.116;2022-08-18T13:29:49;8.45;;;4.65;;
11203;SDS011;5659;49.408;11.116;2022-08-18T13:32:15;6.90;;;4.13;;
11203;SDS011;5659;49.408;11.116;2022-08-18T13:34:42;5.53;;;4.50;;
11203;SDS011;5659;49.408;11.116;2022-08-18T13:37:08;10.65;;;4.60;;
11203;SDS011;5659;49.408;11.116;2022-08-18T13:39:34;9.25;;;4.30;;
11203;SDS011;5659;49.408;11.116;2022-08-18T13:42:01;7.03;;;4.40;;
11203;SDS011;5659;49.408;11.116;2022-08-18T13:44:27;6.50;;;4.43;;
11203;SDS011;5659;49.408;11.116;2022-08-18T13:46:53;6.03;;;4.18;;
11203;SDS011;5659;49.408;11.116;2022-08-18T13:49:21;7.82;;;4.30;;
11203;SDS011;5659;49.408;11.116;2022-08-18T13:51:48;9.18;;;4.32;;
11203;SDS011;5659;49.408;11.116;2022-08-18T13:54:16;7.00;;;4.30;;
11203;SDS011;5659;49.408;11.116;2022-08-18T13:56:43;4.90;;;4.07;;
11203;SDS011;5659;49.408;11.116;2022-08-18T13:59:10;5.88;;;4.22;;
11203;SDS011;5659;49.408;11.116;2022-08-18T14:01:37;6.13;;;4.00;;
11203;SDS011;5659;49.408;11.116;2022-08-18T14:04:03;4.63;;;4.10;;
11203;SDS011;5659;49.408;11.116;2022-08-18T14:06:29;9.93;;;4.28;;
11203;SDS011;5659;49.408;11.116;2022-08-18T14:08:55;8.90;;;4.30;;
11203;SDS011;5659;49.408;11.116;2022-08-18T14:11:27;9.15;;;3.55;;
11203;SDS011;5659;49.408;11.116;2022-08-18T14:13:53;6.65;;;4.20;;
11203;SDS011;5659;49.408;11.116;2022-08-18T14:16:20;5.43;;;4.38;;
11203;SDS011;5659;49.408;11.116;2022-08-18T14:18:46;5.32;;;4.50;;
11203;SDS011;5659;49.408;11.116;2022-08-18T14:21:33;5.20;;;4.20;;
11203;SDS011;5659;49.408;11.116;2022-08-18T14:24:18;8.63;;;4.18;;
11203;SDS011;5659;49.408;11.116;2022-08-18T14:27:03;4.75;;;4.20;;
11203;SDS011;5659;49.408;11.116;2022-08-18T14:29:30;7.28;;;3.90;;
11203;SDS011;5659;49.408;11.116;2022-08-18T14:31:56;5.10;;;4.53;;
11203;SDS011;5659;49.408;11.116;2022-08-18T14:34:22;4.95;;;4.40;;
11203;SDS011;5659;49.408;11.116;2022-08-18T14:36:48;11.38;;;4.60;;
11203;SDS011;5659;49.408;11.116;2022-08-18T14:39:14;7.32;;;4.63;;
11203;SDS011;5659;49.408;11.116;2022-08-18T14:41:40;5.55;;;4.00;;
11203;SDS011;5659;49.408;11.116;2022-08-18T14:44:06;9.55;;;4.20;;
11203;SDS011;5659;49.408;11.116;2022-08-18T14:46:37;6.53;;;4.20;;
11203;SDS011;5659;49.408;11.116;2022-08-18T14:49:03;6.60;;;4.43;;
11203;SDS011;5659;49.408;11.116;2022-08-18T14:51:30;6.05;;;4.60;;
11203;SDS011;5659;49.408;11.116;2022-08-18T14:53:56;8.00;;;4.43;;
11203;SDS011;5659;49.408;11.116;2022-08-18T14:56:22;7.00;;;4.10;;
11203;SDS011;5659;49.408;11.116;2022-08-18T14:58:49;8.82;;;4.35;;
11203;SDS011;5659;49.408;11.116;2022-08-18T15:01:15;5.45;;;4.38;;
11203;SDS011;5659;49.408;11.116;2022-08-18T15:03:42;4.30;;;3.90;;
11203;SDS011;5659;49.408;11.116;2022-08-18T15:06:08;8.52;;;4.45;;
11203;SDS011;5659;49.408;11.116;2022-08-18T15:08:35;8.38;;;4.82;;
11203;SDS011;5659;49.408;11.116;2022-08-18T15:11:01;10.50;;;4.38;;
11203;SDS011;5659;49.408;11.116;2022-08-18T15:13:28;8.77;;;4.20;;
11203;SDS011;5659;49.408;11.116;2022-08-18T15:15:54;6.75;;;4.55;;
11203;SDS011;5659;49.408;11.116;2022-08-18T15:18:20;8.65;;;4.63;;
11203;SDS011;5659;49.408;11.116;2022-08-18T15:20:47;6.25;;;4.78;;
11203;SDS011;5659;49.408;11.116;2022-08-18T15:23:32;5.60;;;4.25;;
11203;SDS011;5659;49.408;11.116;2022-08-18T15:26:18;8.43;;;3.95;;
11203;SDS011;5659;49.408;11.116;2022-08-18T15:28:46;6.85;;;4.30;;
11203;SDS011;5659;49.408;11.116;2022-08-18T15:31:12;8.80;;;4.53;;
11203;SDS011;5659;49.408;11.116;2022-08-18T15:33:38;4.78;;;4.28;;
11203;SDS011;5659;49.408;11.116;2022-08-18T15:36:04;7.80;;;4.55;;
11203;SDS011;5659;49.408;11.116;2022-08-18T15:38:30;5.13;;;4.63;;
11203;SDS011;5659;49.408;11.116;2022-08-18T15:40:58;7.07;;;4.75;;
11203;SDS011;5659;49.408;11.116;2022-08-18T15:43:24;6.50;;;4.57;;
11203;SDS011;5659;49.408;11.116;2022-08-18T15:45:50;5.90;;;4.63;;
11203;SDS011;5659;49.408;11.116;2022-08-18T15:48:18;10.68;;;4.38;;
11203;SDS011;5659;49.408;11.116;2022-08-18T15:50:45;6.55;;;4.70;;
11203;SDS011;5659;49.408;11.116;2022-08-18T15:53:12;5.72;;;4.70;;
11203;SDS011;5659;49.408;11.116;2022-08-18T15:55:39;8.32;;;4.72;;
11203;SDS011;5659;49.408;11.116;2022-08-18T15:58:05;5.00;;;4.43;;
11203;SDS011;5659;49.408;11.116;2022-08-18T16:00:32;6.95;;;4.75;;
11203;SDS011;5659;49.408;11.116;2022-08-18T16:02:59;9.90;;;4.95;;
11203;SDS011;5659;49.408;11.116;2022-08-18T16:05:28;7.85;;;5.35;;
11203;SDS011;5659;49.408;11.116;2022-08-18T16:07:55;6.57;;;5.32;;
11203;SDS011;5659;49.408;11.116;2022-08-18T16:10:22;10.02;;;5.20;;
11203;SDS011;5659;49.408;11.116;2022-08-18T16:12:49;9.00;;;5.45;;
11203;SDS011;5659;49.408;11.116;2022-08-18T16:15:16;10.90;;;4.97;;
11203;SDS011;5659;49.408;11.116;2022-08-18T16:17:42;11.50;;;5.13;;
11203;SDS011;5659;49.408;11.116;2022-08-18T16:20:09;5.38;;;4.88;;
11203;SDS011;5659;49.408;11.116;2022-08-18T16:22:35;8.48;;;4.93;;
11203;SDS011;5659;49.408;11.116;2022-08-18T16:25:06;8.18;;;5.25;;
11203;SDS011;5659;49.408;11.116;2022-08-18T16:27:33;7.97;;;5.18;;
11203;SDS011;5659;49.408;11.116;2022-08-18T16:29:59;13.10;;;5.70;;
11203;SDS011;5659;49.408;11.116;2022-08-18T16:32:25;10.15;;;5.55;;
11203;SDS011;5659;49.408;11.116;2022-08-18T16:34:52;12.30;;;5.47;;
11203;SDS011;5659;49.408;11.116;2022-08-18T16:37:18;11.13;;;5.43;;